CDD3 weather

Ste-Agnès-de-Dundee Airport
Ste-Agnès-de-Dundee, Quebec, Canada

Public forecast

Using degrees Celsius for public forecast. Weather courtesy of forecast.io.

Closest aviation weather report (METAR) to Ste-Agnès-de-Dundee Airport

Closest report is Massena International Richards Field, 22.4 nm (41.4 km) WSW. Retrieved 2020/07/09 23:53 UTC (13 minutes ago):

KMSS 092353Z AUTO 25005KT 10SM CLR 32/19 A2990 RMK AO2 SLP122 T03220189 10361 20322 53000

Closest aviation forecast (TAF) to Ste-Agnès-de-Dundee Airport

Closest forecast is Massena International Richards Field, 22.4 nm (41.4 km) WSW. Retrieved 2020-07-10 00:22 UTC (0 seconds ago):

TAF KMSS 092320Z 1000/1024 25005KT P6SM SKC FM101700 15005KT P6SM SCT150